createdAt,value
2023-01-11T00:01:41.563Z,97746.72
2023-01-11T00:04:09.446Z,97758.31
2023-01-11T00:06:37.738Z,97736.66
2023-01-11T00:09:05.577Z,97768.63
2023-01-11T00:11:34.850Z,97765.78
2023-01-11T00:14:02.684Z,97758.09
2023-01-11T00:16:31.028Z,97763.47
2023-01-11T00:18:58.948Z,97746.38
2023-01-11T00:21:27.195Z,97736.13
2023-01-11T00:23:55.157Z,97736.28
2023-01-11T00:26:23.255Z,97736.00
2023-01-11T00:28:53.397Z,97729.09
2023-01-11T00:31:21.732Z,97727.47
2023-01-11T00:33:49.739Z,97721.53
2023-01-11T00:36:18.005Z,97711.13
2023-01-11T00:38:47.027Z,97713.97
2023-01-11T00:41:34.789Z,97704.88
2023-01-11T00:44:22.280Z,97701.69
2023-01-11T00:47:07.478Z,97709.06
2023-01-11T00:49:36.114Z,97699.59
2023-01-11T00:52:08.693Z,97695.59
2023-01-11T00:54:36.753Z,97688.38
2023-01-11T00:57:06.413Z,97680.50
2023-01-11T00:59:35.560Z,97683.31
2023-01-11T01:02:03.548Z,97677.63
2023-01-11T01:04:31.830Z,97683.00
2023-01-11T01:07:00.249Z,97674.44
2023-01-11T01:09:31.678Z,97684.88
2023-01-11T01:12:00.392Z,97673.16
2023-01-11T01:14:28.820Z,97670.41
2023-01-11T01:17:00.804Z,97658.94
2023-01-11T01:19:29.450Z,97664.28
2023-01-11T01:21:58.328Z,97660.44
2023-01-11T01:24:28.291Z,97669.84
2023-01-11T01:26:56.528Z,97671.50
2023-01-11T01:29:24.616Z,97667.47
2023-01-11T01:31:52.859Z,97664.97
2023-01-11T01:34:22.191Z,97665.28
2023-01-11T01:36:50.548Z,97663.06
2023-01-11T01:39:18.504Z,97661.47
2023-01-11T01:41:46.673Z,97659.88
2023-01-11T01:44:53.916Z,97662.03
2023-01-11T01:47:25.333Z,97662.03
2023-01-11T01:49:55.986Z,97660.94
2023-01-11T01:52:28.933Z,97659.56
2023-01-11T01:55:01.483Z,97656.91
2023-01-11T01:57:33.144Z,97658.00
2023-01-11T02:00:05.005Z,97651.78
2023-01-11T02:02:33.107Z,97652.31
2023-01-11T02:05:02.366Z,97652.31
2023-01-11T02:07:34.017Z,97655.03
2023-01-11T02:10:08.243Z,97648.59
2023-01-11T02:12:40.319Z,97643.59
2023-01-11T02:15:10.795Z,97641.09
2023-01-11T02:17:38.908Z,97631.75
2023-01-11T02:20:22.627Z,97633.63
2023-01-11T02:23:22.117Z,97629.84
2023-01-11T02:26:41.569Z,97620.47
2023-01-11T02:29:18.722Z,97623.53
2023-01-11T02:31:53.037Z,97628.88
2023-01-11T02:34:31.666Z,97614.41
2023-01-11T02:37:09.685Z,97618.88
2023-01-11T02:39:46.960Z,97616.28
2023-01-11T02:42:40.200Z,97604.53
2023-01-11T02:45:19.555Z,97602.06
2023-01-11T02:47:52.360Z,97600.69
2023-01-11T02:50:30.282Z,97587.25
2023-01-11T02:53:04.624Z,97585.63
2023-01-11T02:55:38.067Z,97586.75
2023-01-11T02:58:11.383Z,97587.97
2023-01-11T03:00:42.196Z,97585.09
2023-01-11T03:03:15.672Z,97603.53
2023-01-11T03:05:50.958Z,97584.25
2023-01-11T03:08:33.037Z,97581.53
2023-01-11T03:11:06.862Z,97579.16
2023-01-11T03:13:50.993Z,97575.19
2023-01-11T03:16:26.431Z,97572.75
2023-01-11T03:19:05.985Z,97577.59
2023-01-11T03:21:58.500Z,97566.88
2023-01-11T03:24:35.312Z,97569.59
2023-01-11T03:27:17.643Z,97575.25
2023-01-11T03:29:51.557Z,97570.69
2023-01-11T03:32:28.102Z,97569.59
2023-01-11T03:35:06.755Z,97563.41
2023-01-11T03:37:40.329Z,97545.44
2023-01-11T03:40:14.991Z,97550.56
2023-01-11T03:43:01.684Z,97538.50
2023-01-11T03:45:34.522Z,97543.59
2023-01-11T03:48:08.054Z,97525.34
2023-01-11T03:50:37.401Z,97536.88
2023-01-11T03:53:08.276Z,97531.78
2023-01-11T03:55:41.867Z,97525.59
2023-01-11T03:58:11.323Z,97529.63
2023-01-11T04:00:39.604Z,97519.44
2023-01-11T04:03:13.103Z,97522.38
2023-01-11T04:05:44.227Z,97515.16
2023-01-11T04:08:13.016Z,97503.09
2023-01-11T04:10:41.592Z,97507.13
2023-01-11T04:13:09.915Z,97502.28
2023-01-11T04:15:37.812Z,97503.88
2023-01-11T04:18:06.571Z,97495.84
2023-01-11T04:20:38.416Z,97489.13
2023-01-11T04:23:08.213Z,97493.97
2023-01-11T04:25:37.632Z,97491.28
2023-01-11T04:28:06.157Z,97490.44
2023-01-11T04:30:36.133Z,97489.41
2023-01-11T04:33:04.420Z,97485.88
2023-01-11T04:35:32.611Z,97485.63
2023-01-11T04:38:02.768Z,97489.91
2023-01-11T04:40:31.254Z,97489.13
2023-01-11T04:43:02.735Z,97491.00
2023-01-11T04:45:32.710Z,97478.38
2023-01-11T04:48:01.356Z,97482.94
2023-01-11T04:50:29.890Z,97477.84
2023-01-11T04:53:00.597Z,97485.91
2023-01-11T04:55:30.172Z,97478.91
2023-01-11T04:57:59.140Z,97487.50
2023-01-11T05:00:27.916Z,97486.13
2023-01-11T05:02:56.834Z,97480.78
2023-01-11T05:05:25.218Z,97481.88
2023-01-11T05:07:55.030Z,97474.88
2023-01-11T05:10:23.663Z,97481.84
2023-01-11T05:12:53.673Z,97489.09
2023-01-11T05:15:22.105Z,97486.13
2023-01-11T05:17:50.947Z,97484.81
2023-01-11T05:20:19.285Z,97486.13
2023-01-11T05:22:47.945Z,97481.88
2023-01-11T05:25:16.186Z,97477.28
2023-01-11T05:27:44.803Z,97482.13
2023-01-11T05:30:15.637Z,97483.44
2023-01-11T05:32:44.297Z,97480.72
2023-01-11T05:35:12.656Z,97481.03
2023-01-11T05:37:41.352Z,97474.59
2023-01-11T05:40:11.324Z,97475.09
2023-01-11T05:42:39.520Z,97478.84
2023-01-11T05:45:26.315Z,97474.06
2023-01-11T05:47:56.689Z,97472.41
2023-01-11T05:50:24.973Z,97461.66
2023-01-11T05:52:53.962Z,97471.13
2023-01-11T05:55:22.322Z,97464.88
2023-01-11T05:57:51.700Z,97467.34
2023-01-11T06:00:20.840Z,97470.56
2023-01-11T06:02:50.530Z,97469.47
2023-01-11T06:05:20.194Z,97462.75
2023-01-11T06:07:48.589Z,97470.25
2023-01-11T06:10:17.740Z,97469.22
2023-01-11T06:12:46.053Z,97466.00
2023-01-11T06:15:14.328Z,97461.16
2023-01-11T06:17:43.337Z,97453.88
2023-01-11T06:20:13.165Z,97461.69
2023-01-11T06:22:43.456Z,97458.19
2023-01-11T06:25:12.125Z,97449.88
2023-01-11T06:27:40.890Z,97452.25
2023-01-11T06:30:11.065Z,97455.75
2023-01-11T06:32:40.023Z,97443.13
2023-01-11T06:35:08.856Z,97451.69
2023-01-11T06:37:37.629Z,97454.59
2023-01-11T06:40:08.391Z,97451.69
2023-01-11T06:42:37.962Z,97455.53
2023-01-11T06:45:07.987Z,97440.19
2023-01-11T06:47:36.740Z,97453.38
2023-01-11T06:50:05.519Z,97448.50
2023-01-11T06:52:33.970Z,97429.47
2023-01-11T06:55:03.103Z,97439.66
2023-01-11T06:57:34.186Z,97442.63
2023-01-11T07:00:03.711Z,97441.28
2023-01-11T07:02:32.893Z,97440.22
2023-01-11T07:05:01.239Z,97448.03
2023-01-11T07:07:30.038Z,97448.56
2023-01-11T07:09:58.108Z,97439.41
2023-01-11T07:12:27.145Z,97443.97
2023-01-11T07:14:56.825Z,97439.41
2023-01-11T07:17:25.604Z,97437.25
2023-01-11T07:19:54.108Z,97435.66
2023-01-11T07:22:23.184Z,97426.78
2023-01-11T07:24:51.990Z,97429.75
2023-01-11T07:27:21.517Z,97429.47
2023-01-11T07:29:50.233Z,97428.91
2023-01-11T07:32:20.717Z,97431.56
2023-01-11T07:34:49.720Z,97422.19
2023-01-11T07:37:29.008Z,97432.13
2023-01-11T07:39:58.027Z,97440.16
2023-01-11T07:42:44.335Z,97427.00
2023-01-11T07:45:16.125Z,97425.41
2023-01-11T07:47:46.302Z,97425.38
2023-01-11T07:50:15.003Z,97414.09
2023-01-11T07:52:48.655Z,97424.81
2023-01-11T07:55:16.996Z,97420.84
2023-01-11T07:57:45.774Z,97420.56
2023-01-11T08:00:15.496Z,97407.38
2023-01-11T08:02:45.638Z,97430.44
2023-01-11T08:05:14.329Z,97425.13
2023-01-11T08:08:04.687Z,97423.25
2023-01-11T08:10:33.231Z,97415.19
2023-01-11T08:13:20.098Z,97424.78
2023-01-11T08:15:48.830Z,97412.16
2023-01-11T08:18:19.908Z,97408.72
2023-01-11T08:20:49.331Z,97407.56
2023-01-11T08:23:17.971Z,97408.13
2023-01-11T08:25:46.447Z,97404.56
2023-01-11T08:28:15.980Z,97405.44
2023-01-11T08:30:44.944Z,97407.00
2023-01-11T08:33:14.285Z,97405.88
2023-01-11T08:35:44.089Z,97409.41
2023-01-11T08:38:13.569Z,97399.50
2023-01-11T08:40:42.891Z,97406.25
2023-01-11T08:43:11.576Z,97401.66
2023-01-11T08:45:40.992Z,97405.88
2023-01-11T08:48:09.793Z,97407.28
2023-01-11T08:50:38.749Z,97397.44
2023-01-11T08:53:09.575Z,97403.53
2023-01-11T08:55:42.218Z,97400.84
2023-01-11T08:58:10.539Z,97410.56
2023-01-11T09:00:39.482Z,97403.25
2023-01-11T09:03:08.429Z,97400.84
2023-01-11T09:05:37.409Z,97394.41
2023-01-11T09:08:08.087Z,97389.41
2023-01-11T09:10:36.982Z,97393.41
2023-01-11T09:13:05.648Z,97391.25
2023-01-11T09:15:34.669Z,97388.75
2023-01-11T09:18:05.384Z,97388.75
2023-01-11T09:20:34.319Z,97379.69
2023-01-11T09:23:02.831Z,97394.13
2023-01-11T09:25:33.383Z,97396.34
2023-01-11T09:28:02.065Z,97403.03
2023-01-11T09:30:31.369Z,97403.25
2023-01-11T09:32:59.818Z,97394.69
2023-01-11T09:35:28.725Z,97401.00
2023-01-11T09:37:58.531Z,97394.03
2023-01-11T09:40:35.955Z,97395.09
2023-01-11T09:43:07.325Z,97396.44
2023-01-11T09:45:37.336Z,97393.50
2023-01-11T09:48:15.552Z,97387.31
2023-01-11T09:50:47.925Z,97397.03
2023-01-11T09:53:22.634Z,97388.41
2023-01-11T09:55:54.311Z,97380.50
2023-01-11T09:58:56.579Z,97377.75
2023-01-11T10:01:34.720Z,97382.44
2023-01-11T10:04:33.371Z,97371.22
2023-01-11T10:07:23.639Z,97374.69
2023-01-11T10:18:33.919Z,97366.25
2023-01-11T10:21:58.321Z,97353.69
2023-01-11T10:24:31.313Z,97349.94
2023-01-11T10:27:06.417Z,97326.41
2023-01-11T10:29:59.643Z,97345.44
2023-01-11T10:32:46.423Z,97351.75
2023-01-11T10:35:31.935Z,97346.28
2023-01-11T10:38:25.705Z,97326.91
2023-01-11T10:41:06.952Z,97346.09
2023-01-11T10:43:38.926Z,97345.75
2023-01-11T10:46:14.392Z,97343.81
2023-01-11T10:48:44.495Z,97335.00
2023-01-11T10:51:28.767Z,97339.53
2023-01-11T10:57:03.600Z,97335.75
2023-01-11T10:59:52.656Z,97326.72
2023-01-11T11:02:39.171Z,97322.81
2023-01-11T11:05:22.785Z,97331.59
2023-01-11T11:07:57.605Z,97330.97
2023-01-11T11:10:33.491Z,97325.19
2023-01-11T11:13:12.930Z,97309.94
2023-01-11T11:15:48.389Z,97315.25
2023-01-11T11:18:18.173Z,97315.69
2023-01-11T11:20:47.019Z,97299.50
2023-01-11T11:23:18.724Z,97316.22
2023-01-11T11:25:51.433Z,97307.00
2023-01-11T11:28:29.504Z,97299.41
2023-01-11T11:31:00.563Z,97292.72
2023-01-11T11:33:38.049Z,97284.97
2023-01-11T11:36:09.078Z,97284.69
2023-01-11T11:38:38.782Z,97284.81
2023-01-11T11:41:09.830Z,97280.44
2023-01-11T11:43:39.113Z,97285.31
2023-01-11T11:46:23.540Z,97280.69
2023-01-11T11:49:13.548Z,97276.44
2023-01-11T11:51:45.012Z,97279.28
2023-01-11T11:54:24.253Z,97274.97
2023-01-11T11:56:54.095Z,97266.16
2023-01-11T11:59:30.269Z,97263.81
2023-01-11T12:02:03.636Z,97264.25
2023-01-11T12:04:47.594Z,97235.25
2023-01-11T12:07:21.651Z,97262.59
2023-01-11T12:09:59.489Z,97236.66
2023-01-11T12:12:30.499Z,97270.16
2023-01-11T12:15:26.814Z,97244.41
2023-01-11T12:17:58.909Z,97240.53
2023-01-11T12:20:34.871Z,97239.13
2023-01-11T12:23:18.076Z,97242.75
2023-01-11T12:25:59.294Z,97233.22
2023-01-11T12:28:42.267Z,97235.16
2023-01-11T12:31:18.411Z,97233.66
2023-01-11T12:33:54.843Z,97231.06
2023-01-11T12:36:36.378Z,97239.00
2023-01-11T12:39:17.257Z,97230.91
2023-01-11T12:41:59.749Z,97213.31
2023-01-11T12:44:44.851Z,97228.22
2023-01-11T12:47:46.881Z,97220.22
2023-01-11T12:50:22.191Z,97223.63
2023-01-11T12:53:17.264Z,97217.91
2023-01-11T12:55:58.490Z,97214.63
2023-01-11T12:58:35.949Z,97219.19
2023-01-11T13:01:22.444Z,97212.19
2023-01-11T13:04:39.564Z,97200.66
2023-01-11T13:07:16.232Z,97203.06
2023-01-11T13:10:01.719Z,97195.78
2023-01-11T13:12:37.639Z,97200.00
2023-01-11T13:15:18.085Z,97197.94
2023-01-11T13:17:53.037Z,97198.03
2023-01-11T13:20:34.192Z,97200.81
2023-01-11T13:23:15.418Z,97187.69
2023-01-11T13:25:49.038Z,97196.50
2023-01-11T13:28:25.784Z,97190.09
2023-01-11T13:30:54.871Z,97199.31
2023-01-11T13:33:25.730Z,97189.28
2023-01-11T13:35:59.424Z,97188.00
2023-01-11T13:38:38.270Z,97187.44
2023-01-11T13:41:17.001Z,97192.53
2023-01-11T13:43:50.372Z,97192.97
2023-01-11T13:46:26.097Z,97196.72
2023-01-11T13:49:02.568Z,97184.53
2023-01-11T13:51:39.558Z,97186.59
2023-01-11T13:54:16.882Z,97183.94
2023-01-11T13:56:55.756Z,97187.63
2023-01-11T13:59:29.740Z,97189.84
2023-01-11T14:02:04.021Z,97185.66
2023-01-11T14:04:48.161Z,97189.66
2023-01-11T14:07:28.821Z,97187.88
2023-01-11T14:10:31.382Z,97188.00
2023-01-11T14:13:56.321Z,97186.38
2023-01-11T14:16:35.652Z,97185.53
2023-01-11T14:19:13.459Z,97197.16
2023-01-11T14:21:52.166Z,97190.44
2023-01-11T14:24:23.480Z,97183.50
2023-01-11T14:27:08.384Z,97202.09
2023-01-11T14:30:08.413Z,97206.56
2023-01-11T14:33:02.851Z,97201.44
2023-01-11T14:35:59.786Z,97215.00
2023-01-11T14:39:06.479Z,97211.97
2023-01-11T14:42:32.058Z,97219.66
2023-01-11T14:45:30.855Z,97227.78
2023-01-11T14:48:19.713Z,97228.06
2023-01-11T14:56:04.803Z,97235.00
2023-01-11T14:58:34.354Z,97237.53
2023-01-11T15:01:12.221Z,97235.25
2023-01-11T15:03:49.093Z,97240.47
2023-01-11T15:06:20.610Z,97237.84
2023-01-11T15:08:52.261Z,97232.91
2023-01-11T15:11:41.825Z,97228.28
2023-01-11T15:14:26.785Z,97233.28
2023-01-11T15:42:02.016Z,97258.50
2023-01-11T15:44:58.833Z,97253.63
2023-01-11T15:47:49.634Z,97268.78
